createdAt,value
2023-02-18T00:02:20.431Z,98316.41
2023-02-18T00:04:46.969Z,98319.94
2023-02-18T00:07:13.317Z,98313.97
2023-02-18T00:09:39.725Z,98313.88
2023-02-18T00:12:06.383Z,98337.09
2023-02-18T00:14:32.758Z,98325.13
2023-02-18T00:16:59.107Z,98309.59
2023-02-18T00:19:25.508Z,98292.50
2023-02-18T00:21:51.872Z,98310.66
2023-02-18T00:24:19.028Z,98308.13
2023-02-18T00:26:45.510Z,98322.75
2023-02-18T00:29:11.916Z,98320.06
2023-02-18T00:31:39.349Z,98318.41
2023-02-18T00:34:05.924Z,98280.38
2023-02-18T00:36:32.535Z,98309.81
2023-02-18T00:39:00.117Z,98272.56
2023-02-18T00:41:27.326Z,98258.81
2023-02-18T00:43:53.858Z,98276.09
2023-02-18T00:46:20.996Z,98267.44
2023-02-18T00:48:47.339Z,98267.63
2023-02-18T00:51:13.927Z,98267.44
2023-02-18T00:53:40.491Z,98251.00
2023-02-18T00:56:07.781Z,98244.09
2023-02-18T00:58:35.075Z,98238.03
2023-02-18T01:01:01.526Z,98245.78
2023-02-18T01:03:27.933Z,98263.09
2023-02-18T01:05:54.292Z,98249.13
2023-02-18T01:08:20.970Z,98226.63
2023-02-18T01:10:48.319Z,98223.94
2023-02-18T01:13:15.354Z,98197.97
2023-02-18T01:15:42.034Z,98191.91
2023-02-18T01:18:08.813Z,98191.84
2023-02-18T01:20:36.187Z,98174.53
2023-02-18T01:23:03.167Z,98154.53
2023-02-18T01:25:29.528Z,98157.91
2023-02-18T01:39:28.957Z,98118.78
2023-02-18T01:41:55.904Z,98134.22
2023-02-18T01:44:24.972Z,98128.00
2023-02-18T01:46:51.422Z,98132.13
2023-02-18T01:49:26.184Z,98122.63
2023-02-18T01:52:03.956Z,98110.38
2023-02-18T01:54:36.211Z,98103.31
2023-02-18T01:57:12.739Z,98117.09
2023-02-18T01:59:42.341Z,98114.47
2023-02-18T02:02:12.892Z,98123.81
2023-02-18T02:04:39.677Z,98115.91
2023-02-18T02:07:06.204Z,98111.72
2023-02-18T02:09:32.590Z,98127.19
2023-02-18T02:12:20.504Z,98127.00
2023-02-18T02:14:52.926Z,98111.56
2023-02-18T02:17:28.524Z,98084.91
2023-02-18T02:20:19.309Z,98115.09
2023-02-18T02:23:12.580Z,98106.34
2023-02-18T02:25:57.073Z,98113.41
2023-02-18T02:28:32.627Z,98103.75
2023-02-18T02:31:08.197Z,98087.34
2023-02-18T02:33:57.461Z,98080.38
2023-02-18T02:36:49.243Z,98073.41
2023-02-18T02:39:54.498Z,98054.38
2023-02-18T02:42:47.814Z,98069.09
2023-02-18T02:45:29.557Z,98055.91
2023-02-18T02:47:55.913Z,98068.94
2023-02-18T02:50:32.888Z,98050.69
2023-02-18T02:53:02.053Z,98043.59
2023-02-18T02:55:28.417Z,98045.31
2023-02-18T02:57:55.581Z,98038.22
2023-02-18T03:01:03.942Z,98050.34
2023-02-18T03:03:36.294Z,98044.97
2023-02-18T03:06:05.858Z,98034.63
2023-02-18T03:08:54.130Z,98013.84
2023-02-18T03:11:20.495Z,98020.75
2023-02-18T03:13:49.971Z,98006.78
2023-02-18T03:16:37.579Z,97984.28
2023-02-18T03:19:42.825Z,97978.19
2023-02-18T03:22:12.881Z,97985.75
2023-02-18T03:24:46.718Z,98001.38
2023-02-18T03:27:16.538Z,97992.81
2023-02-18T03:29:44.975Z,97985.94
2023-02-18T03:32:11.672Z,97999.56
2023-02-18T03:34:40.422Z,97999.56
2023-02-18T03:37:08.012Z,97973.47
2023-02-18T03:39:36.466Z,97966.59
2023-02-18T03:42:02.892Z,97947.41
2023-02-18T03:44:30.316Z,97916.31
2023-02-18T03:46:56.678Z,97900.75
2023-02-18T03:49:23.018Z,97885.03
2023-02-18T03:51:49.446Z,97862.50
2023-02-18T03:54:15.794Z,97834.56
2023-02-18T03:56:42.604Z,97829.34
2023-02-18T03:59:09.411Z,97813.72
2023-02-18T04:01:35.998Z,97794.63
2023-02-18T04:04:03.175Z,97780.75
2023-02-18T04:06:29.574Z,97752.09
2023-02-18T04:08:55.941Z,97730.28
2023-02-18T04:11:22.485Z,97743.91
2023-02-18T04:13:48.882Z,97742.03
2023-02-18T04:16:15.318Z,97732.47
2023-02-18T04:18:41.873Z,97793.78
2023-02-18T04:21:08.242Z,97815.97
2023-02-18T04:23:34.646Z,97810.75
2023-02-18T04:26:01.101Z,97758.69
2023-02-18T04:28:27.672Z,97701.25
2023-02-18T04:30:54.290Z,97656.06
2023-02-18T04:33:20.666Z,97639.47
2023-02-18T04:35:47.017Z,97610.94
2023-02-18T04:38:13.716Z,97601.22
2023-02-18T04:40:40.131Z,97555.41
2023-02-18T04:43:06.860Z,97509.44
2023-02-18T04:45:33.207Z,97470.50
2023-02-18T04:47:59.577Z,97408.91
2023-02-18T04:50:26.166Z,97348.31
2023-02-18T04:52:52.550Z,97277.31
2023-02-18T04:55:19.094Z,97193.28
2023-02-18T04:57:45.637Z,97151.47
2023-02-18T05:00:15.892Z,97072.47
2023-02-18T05:02:42.539Z,96894.88
2023-02-18T05:05:09.260Z,96701.53
2023-02-18T05:07:35.624Z,96501.44
2023-02-18T05:10:02.236Z,96309.16
2023-02-18T05:12:28.571Z,96111.47
2023-02-18T05:14:54.918Z,95874.91
2023-02-18T05:17:21.300Z,95660.16
2023-02-18T05:19:47.681Z,95391.59
2023-02-18T05:22:14.047Z,95153.53
2023-02-18T05:24:40.411Z,94893.38
2023-02-18T05:27:06.773Z,94522.88
2023-02-18T05:29:33.107Z,94210.63
2023-02-18T05:31:59.546Z,93931.59
2023-02-18T05:34:26.005Z,93654.56
2023-02-18T05:36:52.438Z,93415.66
2023-02-18T05:39:18.803Z,93239.19
2023-02-18T05:41:45.397Z,93073.53
2023-02-18T05:44:30.061Z,92935.09
2023-02-18T05:47:00.646Z,92771.47
2023-02-18T05:49:27.822Z,92665.88
2023-02-18T05:51:54.273Z,92526.34
2023-02-18T05:54:20.668Z,92503.38
2023-02-18T05:56:47.273Z,92489.94
2023-02-18T05:59:13.691Z,92414.53
2023-02-18T06:01:40.625Z,92317.91
2023-02-18T06:04:07.220Z,92249.28
2023-02-18T06:06:33.857Z,92167.34
2023-02-18T06:09:00.226Z,91930.53
2023-02-18T06:11:26.552Z,91711.13
2023-02-18T06:13:52.895Z,91558.78
2023-02-18T06:16:19.553Z,91472.44
2023-02-18T06:18:45.957Z,91380.94
2023-02-18T06:21:12.568Z,91288.94
2023-02-18T06:23:38.988Z,91222.91
2023-02-18T06:26:05.520Z,91149.38
2023-02-18T06:28:31.972Z,91084.41
2023-02-18T06:30:58.461Z,91035.50
2023-02-18T06:33:25.022Z,90965.59
2023-02-18T06:36:09.393Z,90861.13
2023-02-18T06:38:36.079Z,90743.63
2023-02-18T06:41:02.470Z,90586.16
2023-02-18T06:43:28.852Z,90452.88
2023-02-18T06:45:55.396Z,90346.81
2023-02-18T06:48:22.043Z,90193.22
2023-02-18T06:50:48.603Z,90099.66
2023-02-18T06:53:16.970Z,90044.31
2023-02-18T06:55:44.086Z,89957.22
2023-02-18T06:58:11.089Z,89897.47
2023-02-18T07:00:37.576Z,89842.88
2023-02-18T07:03:04.447Z,89778.44
2023-02-18T07:05:30.837Z,89703.34
2023-02-18T07:07:57.274Z,89633.66
2023-02-18T07:10:23.654Z,89573.59
2023-02-18T07:12:50.016Z,89507.56
2023-02-18T07:15:16.426Z,89437.91
2023-02-18T07:17:42.918Z,89134.63
2023-02-18T07:20:09.497Z,89084.50
2023-02-18T07:22:35.963Z,89041.56
2023-02-18T07:25:02.433Z,89022.59
2023-02-18T07:27:28.772Z,88935.78
2023-02-18T07:29:55.308Z,88860.59
2023-02-18T07:32:21.775Z,88792.72
2023-02-18T07:34:48.111Z,88730.78
2023-02-18T07:37:14.646Z,88658.47
2023-02-18T07:39:44.450Z,88608.03
2023-02-18T07:42:11.738Z,88511.25
2023-02-18T07:44:38.328Z,88445.22
2023-02-18T07:47:05.448Z,88356.19
2023-02-18T07:49:33.592Z,88247.91
2023-02-18T07:52:00.239Z,88164.75
2023-02-18T07:54:26.666Z,88096.88
2023-02-18T07:56:53.281Z,88023.34
2023-02-18T07:59:19.659Z,87939.19
2023-02-18T08:01:46.165Z,87890.22
2023-02-18T08:04:12.670Z,87808.66
2023-02-18T08:06:40.800Z,87715.91
2023-02-18T08:09:07.668Z,87632.03
2023-02-18T08:11:34.527Z,87546.69
2023-02-18T08:14:00.892Z,87459.13
2023-02-18T08:16:27.660Z,87380.44
2023-02-18T08:18:54.246Z,87353.75
2023-02-18T08:21:21.865Z,87298.84
2023-02-18T08:23:48.428Z,87256.56
2023-02-18T08:26:14.831Z,87365.03
2023-02-18T08:28:41.212Z,87326.09
2023-02-18T08:31:08.038Z,87277.84
2023-02-18T08:33:34.423Z,87228.81
2023-02-18T08:36:00.773Z,87169.78
2023-02-18T08:38:27.136Z,87062.50
2023-02-18T08:41:08.078Z,86984.88
2023-02-18T08:43:34.737Z,86896.84
2023-02-18T08:46:01.247Z,86594.78
2023-02-18T08:48:28.045Z,86481.78
2023-02-18T08:50:54.423Z,86306.34
2023-02-18T08:53:20.800Z,86150.13
2023-02-18T08:55:47.149Z,86046.75
2023-02-18T08:58:13.935Z,85911.31
2023-02-18T09:00:40.841Z,85836.81
2023-02-18T09:03:07.942Z,85975.78
2023-02-18T09:05:34.296Z,85829.13
2023-02-18T09:08:00.645Z,85738.97
2023-02-18T09:10:27.148Z,85669.59
2023-02-18T09:12:53.492Z,85592.00
2023-02-18T09:15:19.978Z,85551.00
2023-02-18T09:17:46.443Z,85507.69
2023-02-18T09:20:13.315Z,86788.53
2023-02-18T09:22:39.900Z,86771.78
2023-02-18T09:25:07.290Z,86721.09
2023-02-18T09:27:33.667Z,86656.25
2023-02-18T09:30:00.260Z,86589.16
2023-02-18T09:32:34.863Z,86539.94
2023-02-18T09:35:02.852Z,86455.66
2023-02-18T09:37:29.417Z,86403.41
2023-02-18T09:39:55.788Z,86348.22
2023-02-18T09:42:25.425Z,86300.38
2023-02-18T09:44:52.660Z,86261.16
2023-02-18T09:47:35.164Z,86213.34
2023-02-18T09:50:10.550Z,86211.75
2023-02-18T09:52:38.466Z,86257.53
2023-02-18T09:55:21.802Z,86293.63
2023-02-18T09:58:13.285Z,86336.44
2023-02-18T10:00:41.184Z,86430.41
2023-02-18T10:03:24.674Z,86546.06
2023-02-18T10:05:58.005Z,86639.25
2023-02-18T10:08:38.534Z,86833.28
2023-02-18T10:11:12.353Z,86995.59
2023-02-18T10:13:38.745Z,87205.72
2023-02-18T10:16:05.531Z,87402.78
2023-02-18T10:18:42.169Z,87633.47
2023-02-18T10:21:14.390Z,87880.19
2023-02-18T10:23:43.336Z,88138.81
2023-02-18T10:26:15.000Z,88362.03
2023-02-18T10:28:41.379Z,88595.03
2023-02-18T10:31:10.903Z,88810.97
2023-02-18T10:33:59.144Z,89123.63
2023-02-18T10:36:46.079Z,89428.22
2023-02-18T10:39:51.688Z,89818.88
2023-02-18T10:42:24.907Z,90131.91
2023-02-18T10:44:55.332Z,90415.06
2023-02-18T10:47:33.526Z,90664.59
2023-02-18T10:50:03.662Z,90873.25
2023-02-18T10:52:40.317Z,91069.91
2023-02-18T10:55:09.641Z,91269.75
2023-02-18T10:57:37.570Z,91448.97
2023-02-18T11:00:14.921Z,91627.38
2023-02-18T11:02:41.748Z,91759.50
2023-02-18T11:05:28.544Z,91858.88
2023-02-18T11:07:56.795Z,91904.16
2023-02-18T11:10:29.421Z,91887.13
2023-02-18T11:12:57.789Z,91820.13
2023-02-18T11:15:25.246Z,91769.69
2023-02-18T11:17:56.244Z,91754.25
2023-02-18T11:20:30.278Z,91777.00
2023-02-18T11:23:17.222Z,91801.31
2023-02-18T11:25:57.310Z,91821.72
2023-02-18T11:28:45.767Z,91808.09
2023-02-18T11:31:20.942Z,91832.19
2023-02-18T11:33:58.072Z,91876.09
2023-02-18T11:36:34.977Z,91924.22
2023-02-18T11:39:26.662Z,91913.97
2023-02-18T11:41:56.825Z,91894.38
2023-02-18T11:44:40.458Z,91907.97
2023-02-18T11:47:12.928Z,91888.88
2023-02-18T11:49:39.682Z,91914.75
2023-02-18T11:52:24.069Z,91943.00
2023-02-18T11:55:07.415Z,92000.00
2023-02-18T11:57:35.284Z,92050.22
2023-02-18T12:00:01.649Z,92099.38
2023-02-18T12:02:32.931Z,92121.56
2023-02-18T12:05:20.177Z,92094.34
2023-02-18T12:07:52.180Z,92044.84
2023-02-18T12:10:27.975Z,91961.16
2023-02-18T12:13:02.628Z,91911.47
2023-02-18T12:15:41.514Z,91807.69
2023-02-18T12:18:23.040Z,91676.72
2023-02-18T12:20:49.398Z,91584.72
2023-02-18T12:23:24.683Z,91499.56
2023-02-18T12:26:19.027Z,91430.31
2023-02-18T12:29:12.822Z,91346.47
2023-02-18T12:32:11.560Z,91308.84
2023-02-18T12:34:52.882Z,91282.72
2023-02-18T12:37:38.046Z,91273.06
2023-02-18T12:40:25.520Z,91273.81
2023-02-18T12:43:13.188Z,91319.56
2023-02-18T12:45:39.686Z,91354.56
2023-02-18T12:48:30.085Z,91369.75
2023-02-18T12:50:56.620Z,91407.09
2023-02-18T12:53:50.238Z,91438.97
2023-02-18T12:56:19.888Z,91449.94
2023-02-18T12:59:06.096Z,91467.97
2023-02-18T13:01:38.536Z,91429.56
2023-02-18T13:04:34.404Z,91392.47
2023-02-18T13:07:32.895Z,91339.72
2023-02-18T13:09:59.250Z,91341.81
2023-02-18T13:12:37.844Z,91334.50
2023-02-18T13:15:30.448Z,91327.72
2023-02-18T13:17:58.204Z,91359.59
2023-02-18T13:20:34.653Z,91381.50
2023-02-18T13:23:01.286Z,91399.53
2023-02-18T13:25:27.639Z,91465.63
2023-02-18T13:28:32.206Z,91503.75
2023-02-18T13:31:02.257Z,91608.78
2023-02-18T13:33:52.079Z,91703.34
2023-02-18T13:36:34.331Z,91788.00
2023-02-18T13:39:11.050Z,91879.44
2023-02-18T13:41:39.133Z,91932.72
2023-02-18T13:44:28.823Z,92007.75
2023-02-18T13:46:56.738Z,92101.06
2023-02-18T13:49:24.624Z,92186.28
2023-02-18T13:51:54.664Z,92302.34
2023-02-18T13:54:22.856Z,92378.38
2023-02-18T13:57:13.736Z,92431.41
2023-02-18T13:59:41.974Z,92456.53
2023-02-18T14:02:21.220Z,92477.00
2023-02-18T14:04:53.724Z,92491.66
2023-02-18T14:07:23.078Z,92516.19
2023-02-18T14:09:49.448Z,92545.53
2023-02-18T14:12:41.726Z,92547.09
2023-02-18T14:15:20.479Z,92569.59
2023-02-18T14:17:50.438Z,92586.38
2023-02-18T14:20:19.804Z,92643.44
2023-02-18T14:22:52.560Z,92687.66
2023-02-18T14:25:24.959Z,92755.94
2023-02-18T14:27:52.215Z,92796.66
2023-02-18T14:30:22.030Z,92809.63
2023-02-18T14:32:49.797Z,92799.63
2023-02-18T14:35:22.471Z,92702.34
2023-02-18T14:38:01.074Z,92635.97
2023-02-18T14:40:42.759Z,92623.44
2023-02-18T14:43:40.039Z,92619.91
2023-02-18T14:46:28.597Z,92651.06
2023-02-18T14:49:17.113Z,92720.28
2023-02-18T14:51:43.486Z,92757.66
2023-02-18T14:54:14.253Z,92801.06
2023-02-18T14:56:53.504Z,92836.91
2023-02-18T14:59:20.172Z,92810.06
2023-02-18T15:01:46.986Z,92721.69
2023-02-18T15:04:14.524Z,92614.38
2023-02-18T15:06:40.964Z,92523.94
2023-02-18T15:09:20.999Z,92457.00
2023-02-18T15:11:53.691Z,92408.41
2023-02-18T15:14:24.616Z,92378.59
2023-02-18T15:16:50.982Z,92316.94
2023-02-18T15:19:19.385Z,92287.63
2023-02-18T15:21:47.181Z,92249.47
2023-02-18T15:24:53.309Z,92244.22
2023-02-18T15:27:26.514Z,92268.31
2023-02-18T15:29:57.412Z,92345.69
2023-02-18T15:32:27.487Z,92403.25
2023-02-18T15:35:01.848Z,92483.25
2023-02-18T15:37:28.784Z,92619.75
2023-02-18T15:39:55.189Z,92813.81
2023-02-18T15:42:32.248Z,93021.50
2023-02-18T15:45:05.876Z,93261.63
2023-02-18T15:47:32.260Z,93477.22
2023-02-18T15:49:59.750Z,93659.69
2023-02-18T15:52:33.773Z,93805.72
2023-02-18T15:55:06.808Z,93921.81
2023-02-18T15:57:33.254Z,94023.41
2023-02-18T16:00:15.013Z,94100.28
2023-02-18T16:03:19.952Z,94124.19
2023-02-18T16:05:46.340Z,94142.69
2023-02-18T16:08:31.142Z,94089.59
2023-02-18T16:11:02.965Z,94050.56
2023-02-18T16:13:31.450Z,94034.88
2023-02-18T16:16:00.731Z,94033.25
2023-02-18T16:18:41.036Z,94055.78
2023-02-18T16:21:30.839Z,94101.25
2023-02-18T16:23:59.453Z,94117.34
2023-02-18T16:26:38.085Z,94081.50
2023-02-18T16:29:15.398Z,94029.59
2023-02-18T16:31:42.656Z,94008.09
2023-02-18T16:34:09.126Z,93953.19
2023-02-18T16:36:35.466Z,93959.00
2023-02-18T16:39:02.035Z,93973.47
2023-02-18T16:41:28.719Z,94001.03
2023-02-18T16:43:55.091Z,94015.94
2023-02-18T16:46:22.517Z,94040.47
2023-02-18T16:48:54.966Z,94081.88
2023-02-18T16:51:31.958Z,94103.81
2023-02-18T16:53:58.345Z,94152.66
2023-02-18T16:56:26.572Z,94197.34
2023-02-18T16:58:53.123Z,94241.38
2023-02-18T17:01:41.282Z,94333.31
2023-02-18T17:04:09.822Z,94395.47
2023-02-18T17:06:36.228Z,94443.34
2023-02-18T17:09:02.757Z,94467.50
2023-02-18T17:11:33.177Z,94507.38
2023-02-18T17:13:59.641Z,94518.81
2023-02-18T17:16:26.851Z,94531.09
2023-02-18T17:18:53.266Z,94604.56
2023-02-18T17:21:21.291Z,94640.00
2023-02-18T17:23:47.871Z,94688.69
2023-02-18T17:26:15.743Z,94726.66
2023-02-18T17:28:42.248Z,94724.03
2023-02-18T17:31:11.403Z,94744.97
2023-02-18T17:33:37.780Z,94732.47
2023-02-18T17:36:04.347Z,94753.81
2023-02-18T17:38:30.728Z,94734.88
2023-02-18T17:40:57.083Z,94614.66
2023-02-18T17:43:25.287Z,94444.25
2023-02-18T17:45:53.446Z,94269.25
2023-02-18T17:48:19.964Z,94113.19
2023-02-18T17:50:46.388Z,93956.78
2023-02-18T17:53:16.168Z,93859.50
2023-02-18T17:55:42.959Z,93767.66
2023-02-18T17:58:10.394Z,93725.63
2023-02-18T18:00:38.882Z,93709.16
2023-02-18T18:03:05.411Z,93681.63
2023-02-18T18:05:33.426Z,93642.25
2023-02-18T18:08:00.504Z,93624.34
2023-02-18T18:10:32.139Z,93641.25
2023-02-18T18:13:00.579Z,93655.13
2023-02-18T18:15:29.781Z,93697.72
2023-02-18T18:17:56.736Z,93705.97
2023-02-18T18:20:23.809Z,93746.16
2023-02-18T18:22:51.116Z,93810.47
2023-02-18T18:25:18.663Z,93890.06
2023-02-18T18:27:45.138Z,94025.50
2023-02-18T18:30:12.000Z,94178.28
2023-02-18T18:32:38.396Z,94362.47
2023-02-18T18:35:12.965Z,94507.81
2023-02-18T18:37:39.302Z,94598.06
2023-02-18T18:40:06.320Z,94685.28
2023-02-18T18:42:32.676Z,94737.56
2023-02-18T18:44:59.096Z,94802.72
2023-02-18T18:47:25.480Z,94850.59
2023-02-18T18:49:52.154Z,94854.22
2023-02-18T18:52:18.629Z,94866.28
2023-02-18T18:54:44.995Z,94854.56
2023-02-18T18:57:11.403Z,94839.06
2023-02-18T18:59:37.745Z,94833.00
2023-02-18T19:02:04.127Z,94837.59
2023-02-18T19:04:30.487Z,94841.22
2023-02-18T19:06:57.015Z,94866.81
2023-02-18T19:09:23.364Z,94945.03
2023-02-18T19:11:49.752Z,95013.00
2023-02-18T19:14:16.185Z,95083.41
2023-02-18T19:16:42.799Z,95120.81
2023-02-18T19:19:10.299Z,95146.47
2023-02-18T19:21:36.713Z,95190.41
2023-02-18T19:24:03.384Z,95260.31
2023-02-18T19:26:29.739Z,95290.72
2023-02-18T19:28:56.073Z,95373.03
2023-02-18T19:31:24.360Z,95447.06
2023-02-18T19:33:51.530Z,95471.59
2023-02-18T19:36:17.974Z,95478.28
2023-02-18T19:38:45.636Z,95431.53
2023-02-18T19:41:13.134Z,95412.59
2023-02-18T19:43:40.612Z,95401.50
2023-02-18T19:46:17.032Z,95368.47
2023-02-18T19:48:43.467Z,95336.47
2023-02-18T19:51:10.247Z,95324.41
2023-02-18T19:53:37.003Z,95340.09
2023-02-18T19:56:06.751Z,95357.38
2023-02-18T19:58:33.822Z,95350.53
2023-02-18T20:01:00.234Z,95371.09
2023-02-18T20:03:26.587Z,95436.13
2023-02-18T20:05:53.110Z,95488.88
2023-02-18T20:08:19.522Z,95536.09
2023-02-18T20:10:45.869Z,95573.22
2023-02-18T20:13:12.211Z,95617.81
2023-02-18T20:15:40.225Z,95583.47
2023-02-18T20:18:06.681Z,95597.53
2023-02-18T20:20:33.089Z,95591.63
2023-02-18T20:22:59.466Z,95578.88
2023-02-18T20:25:27.335Z,95555.69
2023-02-18T20:28:00.944Z,95511.56
2023-02-18T20:30:28.080Z,95346.44
2023-02-18T20:32:54.458Z,95157.25
2023-02-18T20:35:21.179Z,94930.56
2023-02-18T20:37:47.591Z,94716.34
2023-02-18T20:40:14.103Z,94546.38
2023-02-18T20:42:41.939Z,94392.75
2023-02-18T20:45:09.353Z,94320.44
2023-02-18T20:47:35.707Z,94336.56
2023-02-18T20:50:02.082Z,94379.94
2023-02-18T20:52:28.469Z,94487.22
2023-02-18T20:54:54.841Z,94621.81
2023-02-18T20:57:21.200Z,94772.09
2023-02-18T20:59:47.581Z,94917.00
2023-02-18T21:02:14.043Z,95002.72
2023-02-18T21:04:40.387Z,95069.47
2023-02-18T21:07:06.771Z,95120.03
2023-02-18T21:09:33.119Z,95163.13
2023-02-18T21:11:59.617Z,95237.56
2023-02-18T21:14:26.078Z,95296.66
2023-02-18T21:16:52.583Z,95325.06
2023-02-18T21:19:18.964Z,95345.13
2023-02-18T21:21:46.391Z,95356.41
2023-02-18T21:24:12.836Z,95386.78
2023-02-18T21:26:39.251Z,95369.47
2023-02-18T21:29:07.268Z,95319.50
2023-02-18T21:31:41.154Z,95199.72
2023-02-18T21:34:08.117Z,94969.34
2023-02-18T21:36:34.554Z,94712.66
2023-02-18T21:39:02.321Z,94453.44
2023-02-18T21:41:29.012Z,94231.44
2023-02-18T21:43:55.426Z,94033.13
2023-02-18T21:46:24.396Z,93825.63
2023-02-18T21:49:03.126Z,93671.97
2023-02-18T21:51:48.783Z,93539.53
2023-02-18T21:54:16.573Z,93414.38
2023-02-18T21:56:42.932Z,93347.59
2023-02-18T21:59:09.319Z,93259.94
2023-02-18T22:01:35.726Z,93177.94
2023-02-18T22:04:02.085Z,93057.44
2023-02-18T22:06:28.431Z,92965.59
2023-02-18T22:08:54.812Z,92854.50
2023-02-18T22:11:21.494Z,92738.78
2023-02-18T22:13:47.944Z,92691.31
2023-02-18T22:16:14.351Z,92575.00
2023-02-18T22:18:40.725Z,92482.78
2023-02-18T22:21:07.952Z,92402.22
2023-02-18T22:23:34.693Z,92253.88
2023-02-18T22:26:07.852Z,92109.50
2023-02-18T22:28:34.307Z,92029.75
2023-02-18T22:31:00.913Z,91929.13
2023-02-18T22:33:27.405Z,91849.38
2023-02-18T22:35:53.769Z,91751.94
2023-02-18T22:38:20.139Z,91676.13
2023-02-18T22:40:48.530Z,91602.34
2023-02-18T22:43:16.126Z,91545.81
2023-02-18T22:45:42.730Z,91470.50
2023-02-18T22:48:09.099Z,91410.03
2023-02-18T22:50:35.480Z,91365.47
2023-02-18T22:53:02.044Z,91348.53
2023-02-18T22:55:28.447Z,91312.31
2023-02-18T22:57:54.828Z,91268.81
2023-02-18T23:00:27.117Z,91231.78
2023-02-18T23:02:53.511Z,91209.41
2023-02-18T23:05:19.890Z,91159.38
2023-02-18T23:07:46.332Z,91105.19
2023-02-18T23:10:12.699Z,91064.06
2023-02-18T23:12:39.081Z,91019.75
2023-02-18T23:15:05.639Z,90983.28
2023-02-18T23:17:32.010Z,90970.28
2023-02-18T23:19:58.372Z,90968.69
2023-02-18T23:22:28.719Z,90972.88
2023-02-18T23:24:55.079Z,90979.63
2023-02-18T23:27:22.305Z,90999.94
2023-02-18T23:29:49.028Z,91011.16
2023-02-18T23:32:15.382Z,91032.25
2023-02-18T23:34:41.786Z,91036.41
2023-02-18T23:37:08.350Z,91055.69
2023-02-18T23:39:34.756Z,91059.09
2023-02-18T23:42:01.133Z,91081.75
2023-02-18T23:44:27.753Z,91102.59
2023-02-18T23:46:54.280Z,91113.00
2023-02-18T23:49:22.319Z,91116.66
2023-02-18T23:51:49.698Z,91127.09
2023-02-18T23:54:16.082Z,91115.63
2023-02-18T23:56:42.441Z,91127.09
2023-02-18T23:59:10.021Z,91130.75
